createdAt,value
2022-10-14T00:00:31.143Z,13.12
2022-10-14T00:02:57.769Z,13.21
2022-10-14T00:05:24.363Z,13.40
2022-10-14T00:07:51.090Z,13.49
2022-10-14T00:10:17.808Z,13.41
2022-10-14T00:12:44.382Z,12.99
2022-10-14T00:15:11.115Z,13.09
2022-10-14T00:17:37.669Z,13.13
2022-10-14T00:20:04.496Z,13.18
2022-10-14T00:22:31.053Z,13.09
2022-10-14T00:24:57.680Z,12.93
2022-10-14T00:27:24.370Z,13.00
2022-10-14T00:29:50.965Z,12.98
2022-10-14T00:32:17.600Z,13.00
2022-10-14T00:34:44.290Z,13.17
2022-10-14T00:37:10.936Z,13.15
2022-10-14T00:39:37.549Z,13.14
2022-10-14T00:42:04.248Z,12.81
2022-10-14T00:44:30.876Z,12.60
2022-10-14T00:46:57.476Z,12.39
2022-10-14T00:49:26.002Z,12.62
2022-10-14T00:51:54.597Z,12.73
2022-10-14T00:54:23.291Z,12.90
2022-10-14T00:56:50.884Z,12.83
2022-10-14T00:59:17.906Z,13.09
2022-10-14T01:01:45.315Z,13.08
2022-10-14T01:04:12.042Z,12.82
2022-10-14T01:06:45.576Z,13.01
2022-10-14T01:09:30.956Z,13.05
2022-10-14T01:12:28.459Z,13.15
2022-10-14T01:15:00.059Z,12.82
2022-10-14T01:17:39.108Z,12.98
2022-10-14T01:20:16.647Z,12.88
2022-10-14T01:22:53.743Z,13.14
2022-10-14T01:25:26.857Z,13.15
2022-10-14T01:28:19.569Z,13.16
2022-10-14T01:30:52.114Z,13.16
2022-10-14T01:33:26.669Z,13.05
2022-10-14T01:35:53.366Z,13.21
2022-10-14T01:38:23.115Z,12.87
2022-10-14T01:40:56.047Z,12.82
2022-10-14T01:43:25.773Z,12.86
2022-10-14T01:45:53.993Z,12.87
2022-10-14T01:48:23.347Z,12.82
2022-10-14T01:50:51.257Z,12.67
2022-10-14T01:53:21.138Z,12.44
2022-10-14T01:55:48.568Z,12.61
2022-10-14T01:58:17.108Z,12.58
2022-10-14T02:00:44.298Z,12.69
2022-10-14T02:03:14.128Z,12.76
2022-10-14T02:05:46.979Z,12.77
2022-10-14T02:08:13.551Z,12.66
2022-10-14T02:10:49.016Z,12.29
2022-10-14T02:13:18.436Z,12.25
2022-10-14T02:16:17.267Z,12.46
2022-10-14T02:18:54.158Z,12.33
2022-10-14T02:21:24.740Z,12.70
2022-10-14T02:23:55.448Z,12.36
2022-10-14T02:26:22.818Z,12.41
2022-10-14T02:28:51.122Z,12.26
2022-10-14T02:31:18.929Z,12.32
2022-10-14T02:33:48.777Z,12.38
2022-10-14T02:36:17.117Z,12.26
2022-10-14T02:38:44.207Z,12.34
2022-10-14T02:41:14.296Z,12.26
2022-10-14T02:43:40.958Z,12.30
2022-10-14T02:46:07.729Z,12.37
2022-10-14T02:48:34.338Z,12.26
2022-10-14T02:51:00.999Z,11.87
2022-10-14T02:53:27.687Z,11.89
2022-10-14T02:55:54.331Z,11.69
2022-10-14T02:58:21.099Z,11.90
2022-10-14T03:00:49.219Z,11.90
2022-10-14T03:03:15.875Z,12.18
2022-10-14T03:05:42.857Z,11.81
2022-10-14T03:08:09.436Z,12.17
2022-10-14T03:10:36.065Z,12.05
2022-10-14T03:13:02.716Z,11.68
2022-10-14T03:15:29.399Z,11.84
2022-10-14T03:17:56.057Z,11.82
2022-10-14T03:20:22.697Z,11.91
2022-10-14T03:22:49.337Z,12.07
2022-10-14T03:25:16.540Z,11.96
2022-10-14T03:27:43.259Z,12.23
2022-10-14T03:30:11.038Z,11.30
2022-10-14T03:32:37.694Z,11.80
2022-10-14T03:35:04.391Z,11.98
2022-10-14T03:37:31.359Z,11.70
2022-10-14T03:39:57.976Z,11.85
2022-10-14T03:42:24.700Z,11.85
2022-10-14T03:44:51.379Z,11.76
2022-10-14T03:47:18.346Z,11.96
2022-10-14T03:49:45.062Z,12.05
2022-10-14T03:52:11.684Z,12.02
2022-10-14T03:54:38.334Z,11.96
2022-10-14T03:57:05.038Z,11.80
2022-10-14T03:59:31.726Z,11.53
2022-10-14T04:01:58.374Z,11.92
2022-10-14T04:04:25.118Z,11.52
2022-10-14T04:06:51.782Z,11.81
2022-10-14T04:09:18.397Z,11.72
2022-10-14T04:11:45.047Z,11.57
2022-10-14T04:14:11.757Z,11.48
2022-10-14T04:16:38.386Z,11.77
2022-10-14T04:19:05.014Z,11.69
2022-10-14T04:21:31.587Z,11.84
2022-10-14T04:23:58.319Z,11.87
2022-10-14T04:26:24.939Z,11.92
2022-10-14T04:28:51.667Z,11.77
2022-10-14T04:31:18.408Z,11.89
2022-10-14T04:33:44.987Z,11.93
2022-10-14T04:36:11.688Z,12.00
2022-10-14T04:38:38.285Z,12.02
2022-10-14T04:41:05.084Z,12.01
2022-10-14T04:43:31.771Z,11.84
2022-10-14T04:45:58.429Z,11.79
2022-10-14T04:48:25.068Z,11.82
2022-10-14T04:50:52.416Z,11.79
2022-10-14T04:53:22.155Z,11.80
2022-10-14T04:55:49.906Z,11.86
2022-10-14T04:58:17.081Z,11.75
2022-10-14T05:00:43.787Z,11.83
2022-10-14T05:03:10.444Z,11.90
2022-10-14T05:05:37.067Z,11.70
2022-10-14T05:08:04.125Z,11.79
2022-10-14T05:10:30.880Z,11.77
2022-10-14T05:12:57.457Z,11.60
2022-10-14T05:15:24.213Z,11.51
2022-10-14T05:17:50.968Z,11.70
2022-10-14T05:20:17.618Z,11.62
2022-10-14T05:22:45.690Z,11.56
2022-10-14T05:25:12.642Z,11.69
2022-10-14T05:27:39.249Z,11.54
2022-10-14T05:30:06.115Z,11.84
2022-10-14T05:32:32.889Z,11.60
2022-10-14T05:35:03.938Z,11.52
2022-10-14T05:37:31.091Z,11.53
2022-10-14T05:40:12.317Z,11.76
2022-10-14T05:42:39.156Z,11.27
2022-10-14T05:45:08.212Z,11.18
2022-10-14T05:47:37.531Z,11.06
2022-10-14T05:51:27.705Z,11.24
2022-10-14T05:53:02.222Z,11.48
2022-10-14T05:58:27.087Z,12.16
2022-10-14T06:00:54.397Z,12.60
2022-10-14T06:03:21.703Z,12.90
2022-10-14T06:05:49.952Z,13.24
2022-10-14T06:08:16.789Z,13.46
2022-10-14T06:10:43.573Z,13.80
2022-10-14T06:13:10.497Z,13.99
2022-10-14T06:15:37.309Z,14.12
2022-10-14T06:18:04.348Z,14.40
2022-10-14T06:20:32.086Z,14.67
2022-10-14T06:22:59.359Z,15.24
2022-10-14T06:25:32.687Z,15.84
2022-10-14T06:28:04.148Z,16.20
2022-10-14T06:30:31.483Z,16.57
2022-10-14T06:32:58.532Z,17.01
2022-10-14T06:35:39.228Z,17.27
2022-10-14T06:38:06.159Z,17.12
2022-10-14T06:40:45.419Z,17.61
2022-10-14T06:43:15.177Z,17.84
2022-10-14T06:45:44.203Z,18.03
2022-10-14T06:48:13.252Z,17.87
2022-10-14T06:50:43.207Z,18.01
2022-10-14T06:53:10.051Z,18.61
2022-10-14T06:55:36.854Z,18.78
2022-10-14T06:58:03.656Z,19.01
2022-10-14T07:00:36.340Z,19.29
2022-10-14T07:03:06.292Z,19.57
2022-10-14T07:05:33.788Z,19.38
2022-10-14T07:10:28.238Z,19.91
2022-10-14T07:12:56.045Z,20.30
2022-10-14T07:15:23.116Z,20.60
2022-10-14T07:17:51.776Z,20.59
2022-10-14T07:20:18.770Z,20.47
2022-10-14T07:22:45.756Z,20.59
2022-10-14T07:25:12.821Z,20.24
2022-10-14T07:27:39.617Z,20.54
2022-10-14T07:30:07.101Z,20.43
2022-10-14T07:32:37.089Z,20.54
2022-10-14T07:35:04.411Z,20.80
2022-10-14T07:37:31.228Z,20.85
2022-10-14T07:40:00.645Z,21.19
2022-10-14T07:42:27.619Z,21.61
2022-10-14T07:44:54.631Z,22.09
2022-10-14T07:47:21.875Z,22.29
2022-10-14T07:49:49.079Z,22.51
2022-10-14T07:52:20.078Z,22.17
2022-10-14T07:54:47.019Z,22.30
2022-10-14T07:57:13.818Z,22.28
2022-10-14T07:59:40.577Z,22.27
2022-10-14T08:02:07.597Z,22.60
2022-10-14T08:04:34.508Z,22.54
2022-10-14T08:07:01.715Z,22.44
2022-10-14T08:09:29.092Z,22.77
2022-10-14T08:11:55.811Z,22.81
2022-10-14T08:14:28.310Z,22.58
2022-10-14T08:16:55.217Z,21.77
2022-10-14T08:19:22.298Z,22.10
2022-10-14T08:21:51.496Z,22.89
2022-10-14T08:24:18.298Z,23.21
2022-10-14T08:26:53.197Z,23.72
2022-10-14T08:29:22.750Z,23.45
2022-10-14T08:31:50.253Z,23.61
2022-10-14T08:34:21.361Z,23.46
2022-10-14T08:36:49.131Z,23.64
2022-10-14T08:39:19.770Z,23.98
2022-10-14T08:41:49.796Z,23.95
2022-10-14T08:44:25.540Z,24.20
2022-10-14T08:46:55.098Z,24.44
2022-10-14T08:49:44.995Z,24.76
2022-10-14T08:52:15.857Z,24.72
2022-10-14T08:54:48.558Z,24.53
2022-10-14T08:57:23.789Z,24.38
2022-10-14T08:59:56.607Z,24.87
2022-10-14T09:02:40.381Z,25.04
2022-10-14T09:05:07.657Z,25.23
2022-10-14T09:07:40.879Z,25.15
2022-10-14T09:10:13.064Z,25.42
2022-10-14T09:12:40.153Z,25.66
2022-10-14T09:15:09.667Z,25.44
2022-10-14T09:18:02.005Z,25.50
2022-10-14T09:20:29.089Z,25.73
2022-10-14T09:23:17.988Z,25.92
2022-10-14T09:25:54.801Z,25.88
2022-10-14T09:28:31.463Z,25.95
2022-10-14T09:30:58.574Z,26.77
2022-10-14T09:33:32.778Z,27.29
2022-10-14T09:36:02.443Z,27.59
2022-10-14T09:38:29.580Z,26.61
2022-10-14T09:41:00.496Z,27.59
2022-10-14T09:43:29.780Z,27.32
2022-10-14T09:46:04.572Z,26.77
2022-10-14T09:48:35.833Z,27.17
2022-10-14T09:51:03.567Z,27.71
2022-10-14T09:53:30.554Z,27.51
2022-10-14T09:56:02.835Z,27.46
2022-10-14T09:58:34.309Z,27.73
2022-10-14T10:01:02.001Z,26.24
2022-10-14T10:03:38.729Z,26.65
2022-10-14T10:06:12.918Z,27.28
2022-10-14T10:08:42.558Z,26.94
2022-10-14T10:11:11.882Z,26.91
2022-10-14T10:13:46.611Z,25.83
2022-10-14T10:16:27.632Z,26.35
2022-10-14T10:18:55.669Z,26.57
2022-10-14T10:21:27.247Z,27.01
2022-10-14T10:23:56.157Z,25.69
2022-10-14T10:27:28.797Z,25.81
2022-10-14T10:29:32.040Z,26.71
2022-10-14T10:32:07.947Z,26.66
2022-10-14T10:34:42.309Z,26.71
2022-10-14T10:37:28.579Z,26.73
2022-10-14T10:40:10.784Z,26.47
2022-10-14T10:42:55.281Z,26.15
2022-10-14T10:45:36.877Z,25.48
2022-10-14T10:48:12.545Z,25.14
2022-10-14T10:50:58.257Z,25.31
2022-10-14T10:54:14.020Z,25.71
2022-10-14T10:56:59.195Z,26.50
2022-10-14T10:59:32.649Z,26.57
2022-10-14T11:02:04.159Z,27.25
2022-10-14T11:04:37.755Z,27.79
2022-10-14T11:07:32.858Z,27.66
2022-10-14T11:10:26.502Z,28.30
2022-10-14T11:18:58.521Z,28.49
2022-10-14T11:21:42.205Z,27.52
2022-10-14T11:24:40.160Z,27.48
2022-10-14T11:27:22.359Z,27.82
2022-10-14T11:30:03.880Z,28.24
2022-10-14T11:32:57.141Z,28.02
2022-10-14T11:38:39.939Z,28.22
2022-10-14T11:41:18.688Z,28.83
2022-10-14T11:43:57.328Z,28.59
2022-10-14T11:46:27.951Z,29.12
2022-10-14T11:49:00.142Z,28.71
2022-10-14T11:51:33.219Z,28.75
2022-10-14T11:54:11.567Z,29.64
2022-10-14T11:56:50.807Z,29.90
2022-10-14T11:59:28.169Z,29.14
2022-10-14T12:02:01.258Z,28.90
2022-10-14T12:05:10.562Z,29.02
2022-10-14T12:07:49.244Z,28.70
2022-10-14T12:10:27.013Z,28.52
2022-10-14T12:12:55.168Z,28.45
2022-10-14T12:15:24.724Z,28.42
2022-10-14T12:17:54.429Z,28.42
2022-10-14T12:20:56.469Z,28.10
2022-10-14T12:23:43.996Z,28.13
2022-10-14T12:26:13.968Z,28.16
2022-10-14T12:28:44.047Z,28.20
2022-10-14T12:31:33.767Z,28.52
2022-10-14T12:34:15.729Z,28.48
2022-10-14T12:36:46.097Z,28.93
2022-10-14T12:39:19.355Z,28.75
2022-10-14T12:42:08.362Z,27.34
2022-10-14T12:44:46.198Z,26.31
2022-10-14T12:47:21.291Z,25.53
2022-10-14T12:50:01.169Z,25.63
2022-10-14T12:52:31.458Z,25.20
2022-10-14T12:55:00.357Z,25.04
2022-10-14T12:57:53.918Z,25.91
2022-10-14T13:00:21.881Z,25.91
2022-10-14T13:02:50.956Z,26.14
2022-10-14T13:05:42.748Z,25.94
2022-10-14T13:08:16.283Z,25.60
2022-10-14T13:10:49.869Z,25.84
2022-10-14T13:13:35.661Z,26.16
2022-10-14T13:16:05.514Z,25.85
2022-10-14T13:18:35.330Z,25.81
2022-10-14T13:21:03.066Z,26.07
2022-10-14T13:23:45.469Z,26.42
2022-10-14T13:26:32.067Z,26.79
2022-10-14T13:29:33.797Z,26.90
2022-10-14T13:32:18.698Z,27.22
2022-10-14T13:35:01.246Z,27.28
2022-10-14T13:37:39.666Z,26.28
2022-10-14T13:40:23.308Z,25.36
2022-10-14T13:43:00.927Z,25.25
2022-10-14T13:45:51.649Z,24.76
2022-10-14T13:48:22.105Z,25.16
2022-10-14T13:51:24.250Z,24.69
2022-10-14T13:54:11.178Z,25.10
2022-10-14T13:56:38.033Z,25.04
2022-10-14T13:59:32.988Z,25.16
2022-10-14T14:02:15.488Z,25.45
2022-10-14T14:04:53.177Z,25.31
2022-10-14T14:10:21.999Z,25.10
2022-10-14T14:27:00.777Z,25.34
2022-10-14T14:29:36.067Z,25.97
2022-10-14T14:32:07.254Z,25.99
2022-10-14T14:34:36.152Z,25.62
2022-10-14T14:37:34.224Z,25.33
2022-10-14T14:40:01.028Z,25.49
2022-10-14T14:42:29.389Z,25.63
2022-10-14T14:44:59.695Z,25.59
2022-10-14T14:47:27.991Z,25.64
2022-10-14T14:50:06.286Z,25.44
2022-10-14T14:52:43.529Z,25.55
2022-10-14T14:55:30.063Z,25.47
2022-10-14T14:57:59.565Z,25.28
2022-10-14T15:00:26.539Z,25.22
2022-10-14T15:02:58.808Z,25.28
2022-10-14T15:05:25.458Z,25.19
2022-10-14T15:07:52.149Z,25.30
2022-10-14T15:10:23.996Z,25.25
2022-10-14T15:12:54.218Z,25.27
2022-10-14T15:15:27.138Z,25.26
2022-10-14T15:18:12.998Z,25.04
2022-10-14T15:20:39.925Z,25.20
2022-10-14T15:23:25.299Z,25.04
2022-10-14T15:26:01.209Z,24.91
2022-10-14T15:28:32.136Z,24.47
2022-10-14T15:31:03.043Z,24.39
2022-10-14T15:33:34.188Z,24.42
2022-10-14T15:36:02.067Z,24.24
2022-10-14T15:41:03.391Z,24.13
2022-10-14T15:43:30.305Z,24.08
2022-10-14T15:46:16.871Z,23.94
2022-10-14T15:48:47.947Z,23.80
2022-10-14T15:51:16.371Z,23.49
2022-10-14T15:53:43.019Z,23.51
2022-10-14T15:56:10.650Z,23.27
2022-10-14T15:58:37.692Z,23.26
2022-10-14T16:01:05.352Z,23.16
2022-10-14T16:03:35.982Z,23.23
2022-10-14T16:06:05.503Z,23.17
2022-10-14T16:08:32.357Z,23.06
2022-10-14T16:10:59.357Z,22.83
2022-10-14T16:13:26.268Z,22.71
2022-10-14T16:15:58.299Z,22.68
2022-10-14T16:18:26.079Z,22.56
2022-10-14T16:20:52.778Z,22.40
2022-10-14T16:23:20.687Z,22.14
2022-10-14T16:25:49.414Z,22.17
2022-10-14T16:28:16.803Z,22.20
2022-10-14T16:30:50.382Z,22.05
2022-10-14T16:33:17.906Z,21.98
2022-10-14T16:35:48.517Z,21.50
2022-10-14T16:38:15.200Z,21.21
2022-10-14T16:40:41.811Z,21.13
2022-10-14T16:43:09.667Z,20.96
2022-10-14T16:45:36.585Z,20.79
2022-10-14T16:48:03.717Z,20.72
2022-10-14T16:50:30.340Z,20.61
2022-10-14T16:53:15.856Z,20.54
2022-10-14T16:55:42.520Z,20.70
2022-10-14T16:58:09.101Z,20.61
2022-10-14T17:00:35.888Z,20.46
2022-10-14T17:03:02.744Z,20.45
2022-10-14T17:05:29.987Z,20.47
2022-10-14T17:07:56.869Z,20.30
2022-10-14T17:10:23.580Z,20.21
2022-10-14T17:12:50.349Z,20.10
2022-10-14T17:15:17.046Z,20.13
2022-10-14T17:17:43.769Z,20.20
2022-10-14T17:20:10.622Z,20.08
2022-10-14T17:22:37.446Z,19.85
2022-10-14T17:25:05.439Z,19.61
2022-10-14T17:27:32.147Z,19.52
2022-10-14T17:29:59.447Z,19.36
2022-10-14T17:32:28.521Z,19.37
2022-10-14T17:34:55.278Z,19.24
2022-10-14T17:37:22.599Z,19.33
2022-10-14T17:39:49.299Z,19.38
2022-10-14T17:42:16.392Z,19.29
2022-10-14T17:44:43.939Z,19.33
2022-10-14T17:47:11.530Z,19.26
2022-10-14T17:49:38.609Z,19.04
2022-10-14T17:52:06.439Z,19.12
2022-10-14T17:54:33.138Z,19.12
2022-10-14T17:56:59.880Z,19.05
2022-10-14T17:59:26.532Z,18.95
2022-10-14T18:02:08.652Z,18.70
2022-10-14T18:04:37.689Z,18.34
2022-10-14T18:07:04.418Z,18.12
2022-10-14T18:09:31.070Z,18.16
2022-10-14T18:12:13.456Z,17.83
2022-10-14T18:14:40.971Z,17.73
2022-10-14T18:17:08.127Z,17.75
2022-10-14T18:19:35.315Z,17.72
2022-10-14T18:22:02.954Z,17.60
2022-10-14T18:24:29.788Z,17.88
2022-10-14T18:27:06.092Z,17.86
2022-10-14T18:29:34.187Z,17.77
2022-10-14T18:32:21.486Z,17.64
2022-10-14T18:34:50.357Z,17.47
2022-10-14T18:40:35.396Z,17.36
2022-10-14T18:43:47.277Z,17.19
2022-10-14T18:46:29.213Z,17.07
2022-10-14T18:55:06.978Z,17.24
2022-10-14T18:57:33.620Z,17.23
2022-10-14T19:00:00.328Z,17.33
2022-10-14T19:02:27.067Z,17.29
2022-10-14T19:04:53.749Z,17.19
2022-10-14T19:07:21.532Z,17.01
2022-10-14T19:09:51.903Z,16.82
2022-10-14T19:12:42.683Z,16.82
2022-10-14T19:15:10.358Z,16.78
2022-10-14T19:17:37.112Z,16.51
2022-10-14T19:20:04.643Z,16.79
2022-10-14T19:22:31.457Z,16.84
2022-10-14T19:24:58.229Z,16.64
2022-10-14T19:27:25.196Z,16.58
2022-10-14T19:29:52.089Z,16.62
2022-10-14T19:32:18.789Z,16.39
2022-10-14T19:34:47.503Z,16.58
2022-10-14T19:37:14.391Z,16.37
2022-10-14T19:39:41.059Z,16.05
2022-10-14T19:42:07.803Z,16.31
2022-10-14T19:44:34.507Z,16.49
2022-10-14T19:47:01.279Z,16.31
2022-10-14T19:49:28.899Z,16.07
2022-10-14T19:51:55.511Z,16.09
2022-10-14T19:54:22.146Z,16.11
2022-10-14T19:56:48.776Z,16.16
2022-10-14T19:59:16.519Z,16.16
2022-10-14T20:01:43.158Z,16.17
2022-10-14T20:04:10.296Z,16.14
2022-10-14T20:06:38.749Z,15.97
2022-10-14T20:09:05.816Z,16.12
2022-10-14T20:11:32.516Z,16.06
2022-10-14T20:13:59.249Z,15.88
2022-10-14T20:16:27.199Z,15.86
2022-10-14T20:19:20.885Z,15.62
2022-10-14T20:21:49.859Z,15.61
2022-10-14T20:24:40.166Z,15.76
2022-10-14T20:27:10.922Z,15.71
2022-10-14T20:29:38.781Z,15.46
2022-10-14T20:32:07.250Z,15.35
2022-10-14T20:34:35.427Z,15.39
2022-10-14T20:37:02.669Z,15.38
2022-10-14T20:39:29.426Z,15.51
2022-10-14T20:41:56.176Z,15.45
2022-10-14T20:47:09.746Z,15.27
2022-10-14T20:49:36.370Z,14.97
2022-10-14T20:52:02.989Z,15.17
2022-10-14T20:54:29.858Z,15.03
2022-10-14T20:56:56.447Z,15.21
2022-10-14T20:59:23.269Z,15.33
2022-10-14T21:01:49.907Z,15.01
2022-10-14T21:04:16.498Z,15.18
2022-10-14T21:06:49.037Z,15.04
2022-10-14T21:09:16.185Z,15.14
2022-10-14T21:11:43.343Z,15.08
2022-10-14T21:14:19.710Z,14.85
2022-10-14T21:16:47.818Z,14.67
2022-10-14T21:19:14.435Z,14.89
2022-10-14T21:21:42.470Z,14.45
2022-10-14T21:24:12.105Z,14.61
2022-10-14T21:26:38.740Z,14.56
2022-10-14T21:29:05.378Z,14.59
2022-10-14T21:31:32.025Z,14.73
2022-10-14T21:34:05.062Z,14.66
2022-10-14T21:36:32.546Z,14.45
2022-10-14T21:39:01.064Z,14.40
2022-10-14T21:41:28.031Z,14.48
2022-10-14T21:43:56.258Z,14.43
2022-10-14T21:46:22.991Z,14.29
2022-10-14T21:48:53.590Z,14.12
2022-10-14T21:51:20.176Z,13.96
2022-10-14T21:53:47.111Z,13.95
2022-10-14T21:56:14.757Z,14.22
2022-10-14T21:58:41.739Z,13.97
2022-10-14T22:01:16.118Z,13.75
2022-10-14T22:03:43.799Z,13.56
2022-10-14T22:06:11.487Z,12.72
2022-10-14T22:08:39.186Z,13.11
2022-10-14T22:11:06.218Z,13.22
2022-10-14T22:13:34.169Z,13.28
2022-10-14T22:16:01.156Z,12.95
2022-10-14T22:18:28.040Z,13.20
2022-10-14T22:21:03.937Z,12.94
2022-10-14T22:23:33.318Z,13.01
2022-10-14T22:26:04.668Z,12.38
2022-10-14T22:28:32.326Z,12.78
2022-10-14T22:31:05.041Z,12.92
2022-10-14T22:33:31.858Z,12.96
2022-10-14T22:36:21.057Z,13.13
2022-10-14T22:38:50.919Z,13.22
2022-10-14T22:41:18.174Z,13.14
2022-10-14T22:43:49.361Z,13.21
2022-10-14T22:46:16.669Z,12.95
2022-10-14T22:48:43.386Z,13.02
2022-10-14T22:51:12.953Z,12.93
2022-10-14T22:53:40.577Z,13.06
2022-10-14T22:56:08.278Z,13.02
2022-10-14T22:58:35.279Z,12.97
2022-10-14T23:01:12.594Z,12.84
2022-10-14T23:03:39.598Z,13.03
2022-10-14T23:06:07.281Z,13.24
2022-10-14T23:08:34.438Z,13.22
2022-10-14T23:11:01.803Z,13.21
2022-10-14T23:13:28.489Z,13.24
2022-10-14T23:16:02.805Z,13.18
2022-10-14T23:18:30.602Z,13.25
2022-10-14T23:20:57.357Z,13.25
2022-10-14T23:23:29.701Z,12.50
2022-10-14T23:25:56.268Z,12.93
2022-10-14T23:28:23.008Z,12.89
2022-10-14T23:30:49.699Z,12.83
2022-10-14T23:33:29.449Z,13.06
2022-10-14T23:35:56.091Z,13.05
2022-10-14T23:38:22.727Z,12.99
2022-10-14T23:40:49.375Z,12.46
2022-10-14T23:43:15.970Z,12.69
2022-10-14T23:45:43.999Z,12.89
2022-10-14T23:48:10.688Z,13.06
2022-10-14T23:50:37.249Z,12.75
2022-10-14T23:53:03.886Z,12.99
2022-10-14T23:55:30.721Z,12.63
2022-10-14T23:57:57.366Z,12.82
